sensor_id;sensor_type;location;lat;lon;timestamp;temperature;humidity
26278;DHT22;14000;52.056;8.510;2022-07-29T00:01:36;17.10;99.90
26278;DHT22;14000;52.056;8.510;2022-07-29T00:04:02;17.10;99.90
26278;DHT22;14000;52.056;8.510;2022-07-29T00:06:27;17.10;99.90
26278;DHT22;14000;52.056;8.510;2022-07-29T00:08:53;17.10;99.90
26278;DHT22;14000;52.056;8.510;2022-07-29T00:11:19;17.00;99.90
26278;DHT22;14000;52.056;8.510;2022-07-29T00:13:44;17.30;99.90
26278;DHT22;14000;52.056;8.510;2022-07-29T00:16:10;16.90;99.90
26278;DHT22;14000;52.056;8.510;2022-07-29T00:18:36;16.90;99.90
26278;DHT22;14000;52.056;8.510;2022-07-29T00:21:01;16.90;99.90
26278;DHT22;14000;52.056;8.510;2022-07-29T00:23:27;16.90;99.90
26278;DHT22;14000;52.056;8.510;2022-07-29T00:25:53;16.90;99.90
26278;DHT22;14000;52.056;8.510;2022-07-29T00:28:18;16.90;99.90
26278;DHT22;14000;52.056;8.510;2022-07-29T00:30:44;16.90;99.90
26278;DHT22;14000;52.056;8.510;2022-07-29T00:33:09;16.80;99.90
26278;DHT22;14000;52.056;8.510;2022-07-29T00:35:35;16.80;99.90
26278;DHT22;14000;52.056;8.510;2022-07-29T00:38:15;16.80;99.90
26278;DHT22;14000;52.056;8.510;2022-07-29T00:40:42;16.80;99.90
26278;DHT22;14000;52.056;8.510;2022-07-29T00:43:08;16.80;99.90
26278;DHT22;14000;52.056;8.510;2022-07-29T00:45:34;16.80;99.90
26278;DHT22;14000;52.056;8.510;2022-07-29T00:47:59;16.70;99.90
26278;DHT22;14000;52.056;8.510;2022-07-29T00:50:26;16.70;99.90
26278;DHT22;14000;52.056;8.510;2022-07-29T00:52:52;16.80;99.90
26278;DHT22;14000;52.056;8.510;2022-07-29T00:55:18;16.70;99.90
26278;DHT22;14000;52.056;8.510;2022-07-29T00:57:44;16.60;99.90
26278;DHT22;14000;52.056;8.510;2022-07-29T01:00:14;16.60;99.90
26278;DHT22;14000;52.056;8.510;2022-07-29T01:02:39;16.50;99.90
26278;DHT22;14000;52.056;8.510;2022-07-29T01:05:06;16.50;99.90
26278;DHT22;14000;52.056;8.510;2022-07-29T01:07:34;16.50;99.90
26278;DHT22;14000;52.056;8.510;2022-07-29T01:10:04;16.50;99.90
26278;DHT22;14000;52.056;8.510;2022-07-29T01:12:32;16.50;99.90
26278;DHT22;14000;52.056;8.510;2022-07-29T01:15:00;16.50;99.90
26278;DHT22;14000;52.056;8.510;2022-07-29T01:23:08;16.40;99.90
26278;DHT22;14000;52.056;8.510;2022-07-29T01:32:00;16.40;99.90
26278;DHT22;14000;52.056;8.510;2022-07-29T01:40:34;16.30;99.90
26278;DHT22;14000;52.056;8.510;2022-07-29T01:43:09;16.30;99.90
26278;DHT22;14000;52.056;8.510;2022-07-29T01:45:39;16.30;99.90
26278;DHT22;14000;52.056;8.510;2022-07-29T01:48:27;16.30;99.90
26278;DHT22;14000;52.056;8.510;2022-07-29T01:51:04;16.30;99.90
26278;DHT22;14000;52.056;8.510;2022-07-29T01:53:36;16.30;99.90
26278;DHT22;14000;52.056;8.510;2022-07-29T01:56:03;16.20;99.90
26278;DHT22;14000;52.056;8.510;2022-07-29T01:58:31;16.20;99.90
26278;DHT22;14000;52.056;8.510;2022-07-29T02:00:58;16.20;99.90
26278;DHT22;14000;52.056;8.510;2022-07-29T02:03:26;16.20;99.90
26278;DHT22;14000;52.056;8.510;2022-07-29T02:05:53;16.10;99.90
26278;DHT22;14000;52.056;8.510;2022-07-29T02:08:19;16.10;99.90
26278;DHT22;14000;52.056;8.510;2022-07-29T02:10:47;16.10;99.90
26278;DHT22;14000;52.056;8.510;2022-07-29T02:13:15;16.10;99.90
26278;DHT22;14000;52.056;8.510;2022-07-29T02:15:42;16.10;99.90
26278;DHT22;14000;52.056;8.510;2022-07-29T02:18:15;16.10;99.90
26278;DHT22;14000;52.056;8.510;2022-07-29T02:20:46;16.00;99.90
26278;DHT22;14000;52.056;8.510;2022-07-29T02:23:16;16.00;99.90
26278;DHT22;14000;52.056;8.510;2022-07-29T02:25:43;16.00;99.90
26278;DHT22;14000;52.056;8.510;2022-07-29T02:28:09;16.00;99.90
26278;DHT22;14000;52.056;8.510;2022-07-29T02:30:39;15.90;99.90
26278;DHT22;14000;52.056;8.510;2022-07-29T02:33:07;15.80;99.90
26278;DHT22;14000;52.056;8.510;2022-07-29T02:35:34;15.70;99.90
26278;DHT22;14000;52.056;8.510;2022-07-29T02:38:02;15.70;99.90
26278;DHT22;14000;52.056;8.510;2022-07-29T02:40:48;15.60;99.90
26278;DHT22;14000;52.056;8.510;2022-07-29T02:43:15;15.60;99.90
26278;DHT22;14000;52.056;8.510;2022-07-29T02:45:42;15.50;99.90
26278;DHT22;14000;52.056;8.510;2022-07-29T02:48:13;15.50;99.90
26278;DHT22;14000;52.056;8.510;2022-07-29T02:50:46;15.60;99.90
26278;DHT22;14000;52.056;8.510;2022-07-29T02:53:18;15.70;99.90
26278;DHT22;14000;52.056;8.510;2022-07-29T02:56:06;15.60;99.90
26278;DHT22;14000;52.056;8.510;2022-07-29T02:58:42;15.60;99.90
26278;DHT22;14000;52.056;8.510;2022-07-29T03:01:21;15.60;99.90
26278;DHT22;14000;52.056;8.510;2022-07-29T03:03:49;15.60;99.90
26278;DHT22;14000;52.056;8.510;2022-07-29T03:06:16;15.50;99.90
26278;DHT22;14000;52.056;8.510;2022-07-29T03:08:43;15.50;99.90
26278;DHT22;14000;52.056;8.510;2022-07-29T03:11:10;15.40;99.90
26278;DHT22;14000;52.056;8.510;2022-07-29T03:13:36;15.30;99.90
26278;DHT22;14000;52.056;8.510;2022-07-29T03:16:04;15.40;99.90
26278;DHT22;14000;52.056;8.510;2022-07-29T03:18:30;15.30;99.90
26278;DHT22;14000;52.056;8.510;2022-07-29T03:20:56;15.30;99.90
26278;DHT22;14000;52.056;8.510;2022-07-29T03:23:23;15.30;99.90
26278;DHT22;14000;52.056;8.510;2022-07-29T03:25:53;15.30;99.90
26278;DHT22;14000;52.056;8.510;2022-07-29T03:28:19;15.20;99.90
26278;DHT22;14000;52.056;8.510;2022-07-29T03:30:45;15.30;99.90
26278;DHT22;14000;52.056;8.510;2022-07-29T03:33:11;15.30;99.90
26278;DHT22;14000;52.056;8.510;2022-07-29T03:35:37;15.30;99.90
26278;DHT22;14000;52.056;8.510;2022-07-29T03:38:03;15.30;99.90
26278;DHT22;14000;52.056;8.510;2022-07-29T03:40:43;15.30;99.90
26278;DHT22;14000;52.056;8.510;2022-07-29T03:43:10;15.30;99.90
26278;DHT22;14000;52.056;8.510;2022-07-29T03:45:37;15.30;99.90
26278;DHT22;14000;52.056;8.510;2022-07-29T03:48:08;15.30;99.90
26278;DHT22;14000;52.056;8.510;2022-07-29T03:50:35;15.30;99.90
26278;DHT22;14000;52.056;8.510;2022-07-29T03:53:02;15.30;99.90
26278;DHT22;14000;52.056;8.510;2022-07-29T03:55:32;15.20;99.90
26278;DHT22;14000;52.056;8.510;2022-07-29T03:57:59;15.20;99.90
26278;DHT22;14000;52.056;8.510;2022-07-29T04:00:26;15.20;99.90
26278;DHT22;14000;52.056;8.510;2022-07-29T04:02:52;15.20;99.90
26278;DHT22;14000;52.056;8.510;2022-07-29T04:05:18;15.20;99.90
26278;DHT22;14000;52.056;8.510;2022-07-29T04:07:47;15.20;99.90
26278;DHT22;14000;52.056;8.510;2022-07-29T04:10:13;15.20;99.90
26278;DHT22;14000;52.056;8.510;2022-07-29T04:12:41;15.20;99.90
26278;DHT22;14000;52.056;8.510;2022-07-29T04:15:07;15.20;99.90
26278;DHT22;14000;52.056;8.510;2022-07-29T04:17:33;15.10;99.90
26278;DHT22;14000;52.056;8.510;2022-07-29T04:19:59;15.20;99.90
26278;DHT22;14000;52.056;8.510;2022-07-29T04:22:24;15.20;99.90
26278;DHT22;14000;52.056;8.510;2022-07-29T04:24:50;15.10;99.90
26278;DHT22;14000;52.056;8.510;2022-07-29T04:27:16;15.10;99.90
26278;DHT22;14000;52.056;8.510;2022-07-29T04:29:41;15.20;99.90
26278;DHT22;14000;52.056;8.510;2022-07-29T04:32:07;15.10;99.90
26278;DHT22;14000;52.056;8.510;2022-07-29T04:34:33;15.10;99.90
26278;DHT22;14000;52.056;8.510;2022-07-29T04:36:58;15.20;99.90
26278;DHT22;14000;52.056;8.510;2022-07-29T04:39:24;15.20;99.90
26278;DHT22;14000;52.056;8.510;2022-07-29T04:41:50;15.10;99.90
26278;DHT22;14000;52.056;8.510;2022-07-29T04:44:16;15.10;99.90
26278;DHT22;14000;52.056;8.510;2022-07-29T04:46:41;15.20;99.90
26278;DHT22;14000;52.056;8.510;2022-07-29T04:49:07;15.10;99.90
26278;DHT22;14000;52.056;8.510;2022-07-29T04:51:33;15.10;99.90
26278;DHT22;14000;52.056;8.510;2022-07-29T04:53:59;15.10;99.90
26278;DHT22;14000;52.056;8.510;2022-07-29T04:56:25;15.20;99.90
26278;DHT22;14000;52.056;8.510;2022-07-29T04:58:51;15.20;99.90
26278;DHT22;14000;52.056;8.510;2022-07-29T05:01:16;14.90;99.90
26278;DHT22;14000;52.056;8.510;2022-07-29T05:03:42;15.20;99.90
26278;DHT22;14000;52.056;8.510;2022-07-29T05:06:08;15.20;99.90
26278;DHT22;14000;52.056;8.510;2022-07-29T05:08:33;15.20;99.90
26278;DHT22;14000;52.056;8.510;2022-07-29T05:10:59;15.30;99.90
26278;DHT22;14000;52.056;8.510;2022-07-29T05:13:25;15.40;99.90
26278;DHT22;14000;52.056;8.510;2022-07-29T05:15:51;15.50;99.90
26278;DHT22;14000;52.056;8.510;2022-07-29T05:18:16;15.60;99.90
26278;DHT22;14000;52.056;8.510;2022-07-29T05:20:42;15.70;99.90
26278;DHT22;14000;52.056;8.510;2022-07-29T05:23:07;15.70;99.90
26278;DHT22;14000;52.056;8.510;2022-07-29T05:25:34;15.80;99.90
26278;DHT22;14000;52.056;8.510;2022-07-29T05:27:59;15.80;99.90
26278;DHT22;14000;52.056;8.510;2022-07-29T05:30:25;15.90;99.90
26278;DHT22;14000;52.056;8.510;2022-07-29T05:32:51;15.90;99.90
26278;DHT22;14000;52.056;8.510;2022-07-29T05:35:16;15.90;99.90
26278;DHT22;14000;52.056;8.510;2022-07-29T05:37:42;16.00;99.90
26278;DHT22;14000;52.056;8.510;2022-07-29T05:40:08;16.10;99.90
26278;DHT22;14000;52.056;8.510;2022-07-29T05:42:34;16.20;99.90
26278;DHT22;14000;52.056;8.510;2022-07-29T05:45:01;16.30;99.90
26278;DHT22;14000;52.056;8.510;2022-07-29T05:47:27;16.30;99.90
26278;DHT22;14000;52.056;8.510;2022-07-29T05:49:52;16.30;99.90
26278;DHT22;14000;52.056;8.510;2022-07-29T05:52:19;16.40;99.90
26278;DHT22;14000;52.056;8.510;2022-07-29T05:54:45;16.50;99.90
26278;DHT22;14000;52.056;8.510;2022-07-29T05:57:21;16.60;99.90
26278;DHT22;14000;52.056;8.510;2022-07-29T05:59:48;17.00;99.90
26278;DHT22;14000;52.056;8.510;2022-07-29T06:02:14;16.80;99.90
26278;DHT22;14000;52.056;8.510;2022-07-29T06:04:41;16.90;99.90
26278;DHT22;14000;52.056;8.510;2022-07-29T06:07:06;17.00;99.90
26278;DHT22;14000;52.056;8.510;2022-07-29T06:09:32;17.10;99.90
26278;DHT22;14000;52.056;8.510;2022-07-29T06:11:58;17.20;99.90
26278;DHT22;14000;52.056;8.510;2022-07-29T06:14:24;17.30;99.90
26278;DHT22;14000;52.056;8.510;2022-07-29T06:16:50;17.30;99.90
26278;DHT22;14000;52.056;8.510;2022-07-29T06:19:16;17.40;99.90
26278;DHT22;14000;52.056;8.510;2022-07-29T06:21:43;17.40;99.90
26278;DHT22;14000;52.056;8.510;2022-07-29T06:24:10;17.50;99.90
26278;DHT22;14000;52.056;8.510;2022-07-29T06:26:35;17.50;99.90
26278;DHT22;14000;52.056;8.510;2022-07-29T06:29:01;17.60;99.90
26278;DHT22;14000;52.056;8.510;2022-07-29T06:31:27;17.70;99.90
26278;DHT22;14000;52.056;8.510;2022-07-29T06:33:52;17.70;99.90
26278;DHT22;14000;52.056;8.510;2022-07-29T06:36:18;17.80;99.90
26278;DHT22;14000;52.056;8.510;2022-07-29T06:38:44;17.80;99.90
26278;DHT22;14000;52.056;8.510;2022-07-29T06:41:09;17.80;99.90
26278;DHT22;14000;52.056;8.510;2022-07-29T06:43:41;17.80;99.90
26278;DHT22;14000;52.056;8.510;2022-07-29T06:46:12;17.90;99.90
26278;DHT22;14000;52.056;8.510;2022-07-29T06:48:40;17.90;99.90
26278;DHT22;14000;52.056;8.510;2022-07-29T06:51:08;18.00;99.90
26278;DHT22;14000;52.056;8.510;2022-07-29T06:53:34;18.20;99.90
26278;DHT22;14000;52.056;8.510;2022-07-29T06:56:01;18.30;99.90
26278;DHT22;14000;52.056;8.510;2022-07-29T06:58:29;18.40;99.90
26278;DHT22;14000;52.056;8.510;2022-07-29T07:00:57;18.50;99.90
26278;DHT22;14000;52.056;8.510;2022-07-29T07:03:23;18.50;99.90
26278;DHT22;14000;52.056;8.510;2022-07-29T07:05:49;18.60;99.90
26278;DHT22;14000;52.056;8.510;2022-07-29T07:08:14;18.60;99.90
26278;DHT22;14000;52.056;8.510;2022-07-29T07:10:42;18.60;99.90
26278;DHT22;14000;52.056;8.510;2022-07-29T07:13:07;18.70;99.90
26278;DHT22;14000;52.056;8.510;2022-07-29T07:15:33;18.80;99.90
26278;DHT22;14000;52.056;8.510;2022-07-29T07:17:59;18.90;99.90
26278;DHT22;14000;52.056;8.510;2022-07-29T07:20:25;18.90;99.90
26278;DHT22;14000;52.056;8.510;2022-07-29T07:22:50;18.90;99.90
26278;DHT22;14000;52.056;8.510;2022-07-29T07:25:16;18.90;99.90
26278;DHT22;14000;52.056;8.510;2022-07-29T07:27:46;19.00;99.90
26278;DHT22;14000;52.056;8.510;2022-07-29T07:30:12;19.10;99.90
26278;DHT22;14000;52.056;8.510;2022-07-29T07:32:38;19.10;99.90
26278;DHT22;14000;52.056;8.510;2022-07-29T07:35:05;19.10;99.90
26278;DHT22;14000;52.056;8.510;2022-07-29T07:37:32;19.10;99.90
26278;DHT22;14000;52.056;8.510;2022-07-29T07:39:58;19.10;99.90
26278;DHT22;14000;52.056;8.510;2022-07-29T07:42:23;19.20;99.90
26278;DHT22;14000;52.056;8.510;2022-07-29T07:44:49;19.20;99.90
26278;DHT22;14000;52.056;8.510;2022-07-29T07:47:15;19.30;99.90
26278;DHT22;14000;52.056;8.510;2022-07-29T07:49:46;19.30;99.90
26278;DHT22;14000;52.056;8.510;2022-07-29T07:52:12;19.30;99.90
26278;DHT22;14000;52.056;8.510;2022-07-29T07:54:37;19.30;99.90
26278;DHT22;14000;52.056;8.510;2022-07-29T07:57:03;19.30;99.90
26278;DHT22;14000;52.056;8.510;2022-07-29T07:59:29;19.40;99.90
26278;DHT22;14000;52.056;8.510;2022-07-29T08:01:54;19.50;99.90
26278;DHT22;14000;52.056;8.510;2022-07-29T08:04:20;19.60;99.90
26278;DHT22;14000;52.056;8.510;2022-07-29T08:06:46;19.70;99.90
26278;DHT22;14000;52.056;8.510;2022-07-29T08:09:11;19.80;99.90
26278;DHT22;14000;52.056;8.510;2022-07-29T08:11:37;19.80;99.90
26278;DHT22;14000;52.056;8.510;2022-07-29T08:14:03;19.90;99.90
26278;DHT22;14000;52.056;8.510;2022-07-29T08:16:28;20.00;99.90
26278;DHT22;14000;52.056;8.510;2022-07-29T08:18:54;20.10;99.90
26278;DHT22;14000;52.056;8.510;2022-07-29T08:21:23;20.20;99.90
26278;DHT22;14000;52.056;8.510;2022-07-29T08:23:50;20.30;99.90
26278;DHT22;14000;52.056;8.510;2022-07-29T08:26:18;20.20;99.90
26278;DHT22;14000;52.056;8.510;2022-07-29T08:28:45;20.20;99.90
26278;DHT22;14000;52.056;8.510;2022-07-29T08:31:12;20.30;99.90
26278;DHT22;14000;52.056;8.510;2022-07-29T08:33:38;20.50;99.90
26278;DHT22;14000;52.056;8.510;2022-07-29T08:36:05;20.10;99.90
26278;DHT22;14000;52.056;8.510;2022-07-29T08:38:30;20.90;99.90
26278;DHT22;14000;52.056;8.510;2022-07-29T08:40:56;21.00;99.90
26278;DHT22;14000;52.056;8.510;2022-07-29T08:43:22;21.10;99.90
26278;DHT22;14000;52.056;8.510;2022-07-29T08:45:50;21.20;99.90
26278;DHT22;14000;52.056;8.510;2022-07-29T08:48:18;21.50;99.90
26278;DHT22;14000;52.056;8.510;2022-07-29T08:50:45;21.70;99.90
26278;DHT22;14000;52.056;8.510;2022-07-29T08:53:13;21.70;99.90
26278;DHT22;14000;52.056;8.510;2022-07-29T08:55:42;21.60;99.90
26278;DHT22;14000;52.056;8.510;2022-07-29T08:58:09;21.60;99.90
26278;DHT22;14000;52.056;8.510;2022-07-29T09:00:36;21.70;99.90
26278;DHT22;14000;52.056;8.510;2022-07-29T09:03:04;21.80;99.90
26278;DHT22;14000;52.056;8.510;2022-07-29T09:05:31;22.00;99.90
26278;DHT22;14000;52.056;8.510;2022-07-29T09:07:58;22.00;99.90
26278;DHT22;14000;52.056;8.510;2022-07-29T09:10:24;22.10;99.90
26278;DHT22;14000;52.056;8.510;2022-07-29T09:12:50;22.20;99.90
26278;DHT22;14000;52.056;8.510;2022-07-29T09:15:17;22.20;99.90
26278;DHT22;14000;52.056;8.510;2022-07-29T09:17:45;22.30;99.90
26278;DHT22;14000;52.056;8.510;2022-07-29T09:20:17;22.10;99.90
26278;DHT22;14000;52.056;8.510;2022-07-29T09:22:43;22.20;99.90
26278;DHT22;14000;52.056;8.510;2022-07-29T09:25:12;22.50;99.90
26278;DHT22;14000;52.056;8.510;2022-07-29T09:27:38;22.70;99.90
26278;DHT22;14000;52.056;8.510;2022-07-29T09:30:05;22.70;99.90
26278;DHT22;14000;52.056;8.510;2022-07-29T09:32:33;22.90;99.90
26278;DHT22;14000;52.056;8.510;2022-07-29T09:35:20;22.90;99.90
26278;DHT22;14000;52.056;8.510;2022-07-29T09:37:47;22.80;99.90
26278;DHT22;14000;52.056;8.510;2022-07-29T09:40:23;22.90;99.90
26278;DHT22;14000;52.056;8.510;2022-07-29T09:42:50;22.90;99.90
26278;DHT22;14000;52.056;8.510;2022-07-29T09:45:45;22.90;99.90
26278;DHT22;14000;52.056;8.510;2022-07-29T09:48:20;23.00;99.90
26278;DHT22;14000;52.056;8.510;2022-07-29T09:50:47;23.20;99.90
26278;DHT22;14000;52.056;8.510;2022-07-29T09:53:36;23.20;99.90
26278;DHT22;14000;52.056;8.510;2022-07-29T09:56:03;23.30;99.90
26278;DHT22;14000;52.056;8.510;2022-07-29T09:58:29;23.30;99.90
26278;DHT22;14000;52.056;8.510;2022-07-29T10:00:55;23.40;99.90
26278;DHT22;14000;52.056;8.510;2022-07-29T10:03:22;23.50;99.90
26278;DHT22;14000;52.056;8.510;2022-07-29T10:06:10;23.50;99.90
26278;DHT22;14000;52.056;8.510;2022-07-29T10:08:36;23.60;99.90
26278;DHT22;14000;52.056;8.510;2022-07-29T10:13:34;23.50;99.90
26278;DHT22;14000;52.056;8.510;2022-07-29T10:16:00;23.40;99.90
26278;DHT22;14000;52.056;8.510;2022-07-29T10:18:26;23.50;99.90
26278;DHT22;14000;52.056;8.510;2022-07-29T10:20:52;23.40;99.90
26278;DHT22;14000;52.056;8.510;2022-07-29T10:23:18;23.50;99.90
26278;DHT22;14000;52.056;8.510;2022-07-29T10:25:45;23.50;99.90
26278;DHT22;14000;52.056;8.510;2022-07-29T10:28:11;23.50;99.90
26278;DHT22;14000;52.056;8.510;2022-07-29T10:30:38;23.50;99.90
26278;DHT22;14000;52.056;8.510;2022-07-29T10:35:57;23.80;99.90
26278;DHT22;14000;52.056;8.510;2022-07-29T10:44:02;24.30;99.90
26278;DHT22;14000;52.056;8.510;2022-07-29T10:46:38;24.40;99.90
26278;DHT22;14000;52.056;8.510;2022-07-29T10:49:21;24.40;99.90
26278;DHT22;14000;52.056;8.510;2022-07-29T11:05:07;24.70;99.90
26278;DHT22;14000;52.056;8.510;2022-07-29T11:07:35;24.80;99.90
26278;DHT22;14000;52.056;8.510;2022-07-29T11:15:08;25.70;99.90
26278;DHT22;14000;52.056;8.510;2022-07-29T11:20:38;27.60;99.90
26278;DHT22;14000;52.056;8.510;2022-07-29T11:23:22;28.70;99.90
26278;DHT22;14000;52.056;8.510;2022-07-29T11:31:38;28.30;99.90
26278;DHT22;14000;52.056;8.510;2022-07-29T11:45:04;30.40;99.90
26278;DHT22;14000;52.056;8.510;2022-07-29T11:47:53;30.30;99.90
26278;DHT22;14000;52.056;8.510;2022-07-29T11:50:35;30.10;99.90
26278;DHT22;14000;52.056;8.510;2022-07-29T11:53:02;29.90;99.90
26278;DHT22;14000;52.056;8.510;2022-07-29T11:55:28;29.40;99.90
26278;DHT22;14000;52.056;8.510;2022-07-29T11:58:00;28.80;99.90
26278;DHT22;14000;52.056;8.510;2022-07-29T12:00:29;28.40;99.90
26278;DHT22;14000;52.056;8.510;2022-07-29T12:02:56;27.90;99.90
26278;DHT22;14000;52.056;8.510;2022-07-29T12:05:31;27.80;99.90
26278;DHT22;14000;52.056;8.510;2022-07-29T12:08:11;27.50;99.90
26278;DHT22;14000;52.056;8.510;2022-07-29T12:10:38;27.50;99.90
26278;DHT22;14000;52.056;8.510;2022-07-29T12:13:05;27.40;99.90
26278;DHT22;14000;52.056;8.510;2022-07-29T12:15:31;27.50;99.90
26278;DHT22;14000;52.056;8.510;2022-07-29T12:17:56;27.10;99.90
26278;DHT22;14000;52.056;8.510;2022-07-29T12:20:27;27.00;99.90
26278;DHT22;14000;52.056;8.510;2022-07-29T12:22:54;27.10;99.90
26278;DHT22;14000;52.056;8.510;2022-07-29T12:25:21;27.20;99.90
26278;DHT22;14000;52.056;8.510;2022-07-29T12:28:01;27.20;99.90
26278;DHT22;14000;52.056;8.510;2022-07-29T12:30:47;27.10;99.90
26278;DHT22;14000;52.056;8.510;2022-07-29T12:35:47;26.90;99.90
26278;DHT22;14000;52.056;8.510;2022-07-29T12:38:14;27.00;99.90
26278;DHT22;14000;52.056;8.510;2022-07-29T12:40:40;27.00;99.90
26278;DHT22;14000;52.056;8.510;2022-07-29T12:43:17;27.00;99.90
26278;DHT22;14000;52.056;8.510;2022-07-29T12:45:51;26.90;99.90
26278;DHT22;14000;52.056;8.510;2022-07-29T12:48:18;26.60;99.90
26278;DHT22;14000;52.056;8.510;2022-07-29T12:50:59;26.40;99.90
26278;DHT22;14000;52.056;8.510;2022-07-29T12:53:25;26.30;99.90
26278;DHT22;14000;52.056;8.510;2022-07-29T12:55:53;26.40;99.90
26278;DHT22;14000;52.056;8.510;2022-07-29T12:58:34;26.60;99.90
26278;DHT22;14000;52.056;8.510;2022-07-29T13:01:14;26.60;99.90
26278;DHT22;14000;52.056;8.510;2022-07-29T13:06:40;26.30;99.90
26278;DHT22;14000;52.056;8.510;2022-07-29T13:09:11;26.10;99.90
26278;DHT22;14000;52.056;8.510;2022-07-29T13:11:38;26.00;99.90
26278;DHT22;14000;52.056;8.510;2022-07-29T13:14:06;26.10;99.90
26278;DHT22;14000;52.056;8.510;2022-07-29T13:16:34;26.00;99.90
26278;DHT22;14000;52.056;8.510;2022-07-29T13:19:18;26.00;99.90
26278;DHT22;14000;52.056;8.510;2022-07-29T13:21:45;25.90;99.90
26278;DHT22;14000;52.056;8.510;2022-07-29T13:24:11;25.80;99.90
26278;DHT22;14000;52.056;8.510;2022-07-29T13:26:39;25.60;99.90
26278;DHT22;14000;52.056;8.510;2022-07-29T13:29:06;25.60;99.90
26278;DHT22;14000;52.056;8.510;2022-07-29T13:31:32;25.60;99.90
26278;DHT22;14000;52.056;8.510;2022-07-29T13:33:57;25.50;99.90
26278;DHT22;14000;52.056;8.510;2022-07-29T13:36:23;25.50;99.90
26278;DHT22;14000;52.056;8.510;2022-07-29T13:38:49;25.30;99.90
26278;DHT22;14000;52.056;8.510;2022-07-29T13:41:15;25.10;99.90
26278;DHT22;14000;52.056;8.510;2022-07-29T13:43:40;25.00;99.90
26278;DHT22;14000;52.056;8.510;2022-07-29T13:46:06;25.00;99.90
26278;DHT22;14000;52.056;8.510;2022-07-29T13:48:32;24.80;99.90
26278;DHT22;14000;52.056;8.510;2022-07-29T13:50:57;24.80;99.90
26278;DHT22;14000;52.056;8.510;2022-07-29T13:53:23;24.80;99.90
26278;DHT22;14000;52.056;8.510;2022-07-29T13:55:50;24.80;99.90
26278;DHT22;14000;52.056;8.510;2022-07-29T13:58:16;24.60;99.90
26278;DHT22;14000;52.056;8.510;2022-07-29T14:00:42;24.40;99.90
26278;DHT22;14000;52.056;8.510;2022-07-29T14:03:08;24.10;99.90
26278;DHT22;14000;52.056;8.510;2022-07-29T14:05:33;23.90;99.90
26278;DHT22;14000;52.056;8.510;2022-07-29T14:07:59;23.80;99.90
26278;DHT22;14000;52.056;8.510;2022-07-29T14:10:25;23.70;99.90
26278;DHT22;14000;52.056;8.510;2022-07-29T14:12:51;23.70;99.90
26278;DHT22;14000;52.056;8.510;2022-07-29T14:15:17;23.80;99.90
26278;DHT22;14000;52.056;8.510;2022-07-29T14:17:42;23.90;99.90
26278;DHT22;14000;52.056;8.510;2022-07-29T14:20:08;23.90;99.90
26278;DHT22;14000;52.056;8.510;2022-07-29T14:22:34;24.00;99.90
26278;DHT22;14000;52.056;8.510;2022-07-29T14:25:00;24.00;99.90
26278;DHT22;14000;52.056;8.510;2022-07-29T14:27:25;24.10;99.90
26278;DHT22;14000;52.056;8.510;2022-07-29T14:29:52;24.10;99.90
26278;DHT22;14000;52.056;8.510;2022-07-29T14:32:18;24.20;99.90
26278;DHT22;14000;52.056;8.510;2022-07-29T14:34:44;24.20;99.90
26278;DHT22;14000;52.056;8.510;2022-07-29T14:37:09;24.30;99.90
26278;DHT22;14000;52.056;8.510;2022-07-29T14:39:35;24.40;99.90
26278;DHT22;14000;52.056;8.510;2022-07-29T14:42:04;24.40;99.90
26278;DHT22;14000;52.056;8.510;2022-07-29T14:44:29;24.40;99.90
26278;DHT22;14000;52.056;8.510;2022-07-29T14:46:57;24.40;99.90
26278;DHT22;14000;52.056;8.510;2022-07-29T14:49:24;24.40;99.90
26278;DHT22;14000;52.056;8.510;2022-07-29T14:51:50;24.30;99.90
26278;DHT22;14000;52.056;8.510;2022-07-29T14:54:16;24.40;99.90
26278;DHT22;14000;52.056;8.510;2022-07-29T14:56:42;24.30;99.90
26278;DHT22;14000;52.056;8.510;2022-07-29T14:59:07;24.40;99.90
26278;DHT22;14000;52.056;8.510;2022-07-29T15:01:33;24.40;99.90
26278;DHT22;14000;52.056;8.510;2022-07-29T15:03:59;24.30;99.90
26278;DHT22;14000;52.056;8.510;2022-07-29T15:06:25;24.30;99.90
26278;DHT22;14000;52.056;8.510;2022-07-29T15:08:51;24.30;99.90
26278;DHT22;14000;52.056;8.510;2022-07-29T15:11:16;24.20;99.90
26278;DHT22;14000;52.056;8.510;2022-07-29T15:13:42;24.20;99.90
26278;DHT22;14000;52.056;8.510;2022-07-29T15:16:08;24.10;99.90
26278;DHT22;14000;52.056;8.510;2022-07-29T15:18:34;24.10;99.90
26278;DHT22;14000;52.056;8.510;2022-07-29T15:21:00;24.20;99.90
26278;DHT22;14000;52.056;8.510;2022-07-29T15:23:27;24.20;99.90
26278;DHT22;14000;52.056;8.510;2022-07-29T15:25:53;24.20;99.90
26278;DHT22;14000;52.056;8.510;2022-07-29T15:28:18;24.10;99.90
26278;DHT22;14000;52.056;8.510;2022-07-29T15:30:44;24.10;99.90
26278;DHT22;14000;52.056;8.510;2022-07-29T15:33:10;24.10;99.90
26278;DHT22;14000;52.056;8.510;2022-07-29T15:35:38;24.10;99.90
26278;DHT22;14000;52.056;8.510;2022-07-29T15:38:04;24.10;99.90
26278;DHT22;14000;52.056;8.510;2022-07-29T15:40:30;24.10;99.90
26278;DHT22;14000;52.056;8.510;2022-07-29T15:42:56;24.10;99.90
26278;DHT22;14000;52.056;8.510;2022-07-29T15:45:21;24.00;99.90
26278;DHT22;14000;52.056;8.510;2022-07-29T15:47:47;24.00;99.90
26278;DHT22;14000;52.056;8.510;2022-07-29T15:50:13;24.00;99.90
26278;DHT22;14000;52.056;8.510;2022-07-29T15:52:41;23.90;99.90
26278;DHT22;14000;52.056;8.510;2022-07-29T15:55:08;23.80;99.90
26278;DHT22;14000;52.056;8.510;2022-07-29T15:57:34;23.80;99.90
26278;DHT22;14000;52.056;8.510;2022-07-29T16:00:00;23.80;99.90
26278;DHT22;14000;52.056;8.510;2022-07-29T16:02:25;23.60;99.90
26278;DHT22;14000;52.056;8.510;2022-07-29T16:04:51;23.60;99.90
26278;DHT22;14000;52.056;8.510;2022-07-29T16:07:17;23.50;99.90
26278;DHT22;14000;52.056;8.510;2022-07-29T16:09:43;23.50;99.90
26278;DHT22;14000;52.056;8.510;2022-07-29T16:12:09;23.40;99.90
26278;DHT22;14000;52.056;8.510;2022-07-29T16:14:35;23.40;99.90
26278;DHT22;14000;52.056;8.510;2022-07-29T16:17:01;23.30;99.90
26278;DHT22;14000;52.056;8.510;2022-07-29T16:19:28;23.30;99.90
26278;DHT22;14000;52.056;8.510;2022-07-29T16:21:54;23.20;99.90
26278;DHT22;14000;52.056;8.510;2022-07-29T16:24:20;23.20;99.90
26278;DHT22;14000;52.056;8.510;2022-07-29T16:26:46;23.30;99.90
26278;DHT22;14000;52.056;8.510;2022-07-29T16:29:12;23.30;99.90
26278;DHT22;14000;52.056;8.510;2022-07-29T16:31:37;23.20;99.90
26278;DHT22;14000;52.056;8.510;2022-07-29T16:34:03;23.10;99.90
26278;DHT22;14000;52.056;8.510;2022-07-29T16:36:29;23.10;99.90
26278;DHT22;14000;52.056;8.510;2022-07-29T16:38:54;23.00;99.90
26278;DHT22;14000;52.056;8.510;2022-07-29T16:41:20;22.90;99.90
26278;DHT22;14000;52.056;8.510;2022-07-29T16:43:46;22.70;99.90
26278;DHT22;14000;52.056;8.510;2022-07-29T16:46:12;22.50;99.90